Triumphant — WDG8773 — position and weather

sailwx.info

Track history (hours):
 
Tides and Currents Weather Stations Pressure Air Temp Water Temp Dewpoint Dewpoint Depression Visibility Wind Speed Wind Dir Waves Ship Positions

Triumphant

Owner: Harbor Breeze Corporation, Long Beach, CA. More information available from US FCC via Universal Licensing System and Coast Guard Vessel Documentation Center.

Last reported at 2017-Sep-24 03:46 UTC. Time now 2017-Sep-24 14:10 UTC.
Position N 33°46' W 118°12'.

Length 26 m.

Type: Passenger vessel. MMSI: 367580930.

Date/timePositionNaut miles runAvg speedWind from/ knotsBaromVisibWave heightAir tempDewpointWater temp
2017-Sep-24 03:46N 33°46' W 118°12'0 0.0
2017-Sep-24 03:30N 33°46' W 118°12'0 0.0
2017-Sep-24 03:00N 33°46' W 118°12'0 0.1
2017-Sep-24 02:30N 33°46' W 118°12'4 8.7
2017-Sep-24 02:00N 33°44' W 118°16'0 0.2
2017-Sep-24 01:30N 33°44' W 118°16'917.5
2017-Sep-24 01:00N 33°38' W 118°09'816.9
2017-Sep-24 00:31N 33°32' W 118°02'816.9
2017-Sep-24 00:01N 33°37' W 118°10'918.2
2017-Sep-23 23:30N 33°44' W 118°17'0 0.0
2017-Sep-23 23:00N 33°44' W 118°17'815.6
2017-Sep-23 22:31N 33°38' W 118°11'712.9
2017-Sep-23 21:58N 33°34' W 118°04'917.9
2017-Sep-23 21:30N 33°40' W 118°11'612.4
2017-Sep-23 21:00N 33°44' W 118°17'0 0.0
2017-Sep-23 20:31N 33°44' W 118°17'0 0.5
2017-Sep-23 20:00N 33°44' W 118°17'4 0.1
2017-Sep-22 02:00N 33°46' W 118°12'1 2.1
2017-Sep-22 01:30N 33°45' W 118°11'1020.0
2017-Sep-22 01:00N 33°38' W 118°02'612.4
2017-Sep-22 00:31N 33°32' W 118°01'611.9
2017-Sep-22 00:00N 33°33' W 118°08'917.8
2017-Sep-21 23:29N 33°40' W 118°16'511.3
2017-Sep-21 23:00N 33°44' W 118°11'2 2.3
2017-Sep-21 22:11N 33°46' W 118°12'2 9.6
2017-Sep-21 22:01N 33°44' W 118°10'4 7.5
2017-Sep-21 21:30N 33°41' W 118°11'510.8
2017-Sep-21 21:00N 33°37' W 118°05'4 8.0
2017-Sep-21 20:27N 33°34' W 118°09'714.8
2017-Sep-21 20:00N 33°39' W 118°14'611.7
2017-Sep-21 19:31N 33°44' W 118°11'2 3.1
2017-Sep-21 19:01N 33°46' W 118°12'0 0.0
2017-Sep-21 03:16N 33°46' W 118°12'0 0.0
2017-Sep-21 03:00N 33°46' W 118°12'0 0.0
2017-Sep-21 02:29N 33°46' W 118°12'0 0.0
2017-Sep-21 02:00N 33°46' W 118°12'510.9
2017-Sep-21 01:30N 33°41' W 118°15'3 1.6
2017-Sep-20 23:22N 33°42' W 118°19'720.2
2017-Sep-20 23:00N 33°44' W 118°11'2 3.7
2017-Sep-20 22:30N 33°46' W 118°12'0 0.9
2017-Sep-20 22:00N 33°45' W 118°11'714.9
2017-Sep-20 21:30N 33°39' W 118°16'6 9.8
2017-Sep-20 20:52N 33°33' W 118°15'716.9
2017-Sep-20 20:28N 33°34' W 118°07'2 3.4
2017-Sep-20 20:00N 33°35' W 118°06'1020.1
2017-Sep-20 19:31N 33°44' W 118°11'2 4.3
2017-Sep-20 19:00N 33°46' W 118°12'0 0.0
2017-Sep-20 01:45N 33°46' W 118°12'0 0.0
2017-Sep-20 01:30N 33°46' W 118°12'713.3
2017-Sep-20 00:57N 33°39' W 118°08'816.7
2017-Sep-20 00:28N 33°32' W 118°03'3 5.7
2017-Sep-19 23:54N 33°33' W 118°06'6 9.9
2017-Sep-19 23:16N 33°39' W 118°08'518.4
2017-Sep-19 23:00N 33°44' W 118°11'2 4.4
2017-Sep-19 22:30N 33°46' W 118°12'1 1.2
2017-Sep-19 22:00N 33°45' W 118°11'815.1
2017-Sep-19 21:30N 33°38' W 118°08'713.9
2017-Sep-19 21:00N 33°32' W 118°04'2 3.1
2017-Sep-19 20:30N 33°33' W 118°03'2 4.8
2017-Sep-19 20:00N 33°35' W 118°05'1019.5
2017-Sep-19 19:31N 33°43' W 118°11'3 5.1
2017-Sep-19 19:00N 33°46' W 118°12'2 4.0
2017-Sep-19 18:30N 33°44' W 118°11'4 8.5
2017-Sep-19 18:00N 33°44' W 118°17'0 0.0
2017-Sep-19 17:30N 33°44' W 118°17'3 6.3
2017-Sep-19 17:01N 33°43' W 118°13'2 0.2
2017-Sep-19 02:27N 33°46' W 118°12'0 0.0
2017-Sep-19 02:00N 33°46' W 118°12'0 0.0
2017-Sep-19 01:30N 33°46' W 118°12'610.9
2017-Sep-19 00:59N 33°41' W 118°09'917.4
2017-Sep-19 00:28N 33°32' W 118°05'1 1.5
2017-Sep-19 00:00N 33°33' W 118°04'2 3.9
2017-Sep-18 23:30N 33°35' W 118°05'1020.7
2017-Sep-18 23:00N 33°44' W 118°11'2 4.4
2017-Sep-18 22:30N 33°46' W 118°12'0 0.6
2017-Sep-18 22:00N 33°46' W 118°12'714.6
2017-Sep-18 21:30N 33°39' W 118°08'815.8
2017-Sep-18 21:00N 33°32' W 118°03'2 3.1
2017-Sep-18 20:30N 33°33' W 118°04'4 8.8
2017-Sep-18 20:01N 33°37' W 118°07'9 4.5
2017-Sep-18 17:56N 33°45' W 118°11'1 1.2
2017-Sep-18 17:30N 33°46' W 118°12'0 0.0
2017-Sep-18 17:00N 33°46' W 118°12'0 0.0
2017-Sep-18 16:30N 33°46' W 118°12'0 0.0
2017-Sep-18 04:26N 33°46' W 118°12'0 0.0
2017-Sep-18 04:00N 33°46' W 118°12'0 0.0
2017-Sep-18 03:30N 33°46' W 118°12'4 8.9
2017-Sep-18 03:00N 33°43' W 118°16'0 0.3
2017-Sep-18 02:30N 33°43' W 118°16'510.1
2017-Sep-18 02:00N 33°38' W 118°17'2 4.4
2017-Sep-18 01:30N 33°39' W 118°19'510.6
2017-Sep-18 01:00N 33°43' W 118°15'2 3.7
2017-Sep-18 00:30N 33°44' W 118°17'4 7.2
2017-Sep-18 00:00N 33°41' W 118°18'3 6.3
2017-Sep-17 23:30N 33°38' W 118°16'510.6
2017-Sep-17 23:00N 33°43' W 118°16'1 1.8
2017-Sep-17 22:30N 33°44' W 118°17'4 8.8
2017-Sep-17 22:00N 33°40' W 118°17'2 4.0
2017-Sep-17 21:30N 33°38' W 118°16'510.3
2017-Sep-17 21:00N 33°43' W 118°16'1 2.8
2017-Sep-17 20:30N 33°44' W 118°17'0 0.8
2017-Sep-17 20:00N 33°44' W 118°16'4 1.4
2017-Sep-17 17:01N 33°46' W 118°12'0 2.7
2017-Sep-17 17:00N 33°46' W 118°12'0 0.0
2017-Sep-17 16:27N 33°46' W 118°12'0 0.0
2017-Sep-17 03:21N 33°46' W 118°12'0 0.0
2017-Sep-17 03:00N 33°46' W 118°12'0 0.0
2017-Sep-17 02:30N 33°46' W 118°12'2 3.6
2017-Sep-17 02:00N 33°44' W 118°11'5 9.4
2017-Sep-17 01:30N 33°44' W 118°17'0 0.6
2017-Sep-17 01:00N 33°44' W 118°17'3 5.3
2017-Sep-17 00:30N 33°42' W 118°15'5 7.3
2017-Sep-16 23:45N 33°38' W 118°18'2 8.5
2017-Sep-16 23:30N 33°40' W 118°18'4 8.9
2017-Sep-16 23:00N 33°44' W 118°17'3 5.9
2017-Sep-16 22:30N 33°41' W 118°17'3 2.9
2017-Sep-16 21:34N 33°40' W 118°20'223.2
2017-Sep-16 21:30N 33°41' W 118°18'4 7.4
2017-Sep-16 21:00N 33°44' W 118°17'0 0.0
2017-Sep-16 20:30N 33°44' W 118°17'0 0.8
2017-Sep-16 20:00N 33°44' W 118°16'5 9.3
2017-Sep-16 19:30N 33°45' W 118°11'1 1.3
2017-Sep-16 19:00N 33°46' W 118°12'0 0.9
2017-Sep-16 18:30N 33°45' W 118°11'2 3.8
2017-Sep-16 18:00N 33°46' W 118°13'2 3.8
2017-Sep-16 17:30N 33°44' W 118°12'1 2.4
2017-Sep-16 17:01N 33°46' W 118°12'0 0.0
2017-Sep-16 16:30N 33°46' W 118°12'0 0.0
2017-Sep-16 03:17N 33°46' W 118°12'0 0.0
2017-Sep-16 03:00N 33°46' W 118°12'0 0.0
2017-Sep-16 02:30N 33°46' W 118°12'0 0.0
2017-Sep-16 02:00N 33°46' W 118°12'2 4.6
2017-Sep-16 01:30N 33°45' W 118°09'1424.1
2017-Sep-16 00:55N 33°33' W 117°60'818.2
2017-Sep-16 00:30N 33°27' W 117°55'2 3.9
2017-Sep-16 00:01N 33°28' W 117°53'1019.8
2017-Sep-15 23:30N 33°35' W 118°01'1223.3
2017-Sep-15 23:00N 33°43' W 118°11'2 4.9
2017-Sep-15 22:30N 33°46' W 118°12'917.4
2017-Sep-15 22:00N 33°39' W 118°05'714.1
2017-Sep-15 21:31N 33°32' W 118°03'3 6.9
2017-Sep-15 21:01N 33°34' W 118°06'4 7.9
2017-Sep-15 20:29N 33°34' W 118°11'4 7.6
2017-Sep-15 20:00N 33°37' W 118°13'816.4
2017-Sep-15 19:30N 33°45' W 118°11'1 1.4
2017-Sep-15 18:59N 33°46' W 118°12'4 9.3
2017-Sep-15 18:30N 33°41' W 118°11'7 3.9
2017-Sep-15 16:36N 33°36' W 118°17'223.4
2017-Sep-15 16:31N 33°38' W 118°17'510.8
2017-Sep-15 16:00N 33°44' W 118°17'2 3.5
2017-Sep-15 15:30N 33°43' W 118°15'4 7.3
2017-Sep-15 15:00N 33°46' W 118°12'0 0.0
2017-Sep-15 02:29N 33°45' W 118°11'2 3.4
2017-Sep-15 02:00N 33°46' W 118°13'2 4.2
2017-Sep-15 01:30N 33°45' W 118°12'1 2.3
2017-Sep-15 01:00N 33°46' W 118°12'0 0.3
2017-Sep-15 00:30N 33°46' W 118°12'0 0.1
2017-Sep-15 00:00N 33°46' W 118°12'0 0.0
2017-Sep-14 23:30N 33°46' W 118°12'0 0.1
2017-Sep-14 23:00N 33°46' W 118°12'0 0.1
2017-Sep-14 22:30N 33°46' W 118°12'713.7
2017-Sep-14 22:00N 33°40' W 118°08'814.9
2017-Sep-14 21:30N 33°34' W 118°03'1 2.2
2017-Sep-14 21:00N 33°34' W 118°04'1 2.9
2017-Sep-14 20:30N 33°33' W 118°05'712.1
2017-Sep-14 19:58N 33°35' W 118°13'920.1
2017-Sep-14 19:30N 33°44' W 118°11'2 3.6
2017-Sep-14 19:01N 33°46' W 118°12'0 0.0
2017-Sep-14 18:30N 33°46' W 118°12'510.5
2017-Sep-14 18:00N 33°41' W 118°10'1 1.1
2017-Sep-14 17:31N 33°41' W 118°10'5 9.8
2017-Sep-14 17:00N 33°46' W 118°12'  
Track history (hours):
 
Tides and Currents Weather Stations Pressure Air Temp Water Temp Dewpoint Dewpoint Depression Visibility Wind Speed Wind Dir Waves Ship Positions

Triumphant

Owner: Harbor Breeze Corporation, Long Beach, CA. More information available from US FCC via Universal Licensing System and Coast Guard Vessel Documentation Center.

Last reported at 2017-Sep-24 03:46 UTC. Time now 2017-Sep-24 14:10 UTC.
Position N 33°46' W 118°12'.

Length 26 m.

Type: Passenger vessel. MMSI: 367580930.

Date/timePositionNaut miles runAvg speedWind from/ knotsBaromVisibWave heightAir tempDewpointWater temp
2017-Sep-24 03:46N 33°46' W 118°12'0 0.0
2017-Sep-24 03:30N 33°46' W 118°12'0 0.0
2017-Sep-24 03:00N 33°46' W 118°12'0 0.1
2017-Sep-24 02:30N 33°46' W 118°12'4 8.7
2017-Sep-24 02:00N 33°44' W 118°16'0 0.2
2017-Sep-24 01:30N 33°44' W 118°16'917.5
2017-Sep-24 01:00N 33°38' W 118°09'816.9
2017-Sep-24 00:31N 33°32' W 118°02'816.9
2017-Sep-24 00:01N 33°37' W 118°10'918.2
2017-Sep-23 23:30N 33°44' W 118°17'0 0.0
2017-Sep-23 23:00N 33°44' W 118°17'815.6
2017-Sep-23 22:31N 33°38' W 118°11'712.9
2017-Sep-23 21:58N 33°34' W 118°04'917.9
2017-Sep-23 21:30N 33°40' W 118°11'612.4
2017-Sep-23 21:00N 33°44' W 118°17'0 0.0
2017-Sep-23 20:31N 33°44' W 118°17'0 0.5
2017-Sep-23 20:00N 33°44' W 118°17'4 0.1
2017-Sep-22 02:00N 33°46' W 118°12'1 2.1
2017-Sep-22 01:30N 33°45' W 118°11'1020.0
2017-Sep-22 01:00N 33°38' W 118°02'612.4
2017-Sep-22 00:31N 33°32' W 118°01'611.9
2017-Sep-22 00:00N 33°33' W 118°08'917.8
2017-Sep-21 23:29N 33°40' W 118°16'511.3
2017-Sep-21 23:00N 33°44' W 118°11'2 2.3
2017-Sep-21 22:11N 33°46' W 118°12'2 9.6
2017-Sep-21 22:01N 33°44' W 118°10'4 7.5
2017-Sep-21 21:30N 33°41' W 118°11'510.8
2017-Sep-21 21:00N 33°37' W 118°05'4 8.0
2017-Sep-21 20:27N 33°34' W 118°09'714.8
2017-Sep-21 20:00N 33°39' W 118°14'611.7
2017-Sep-21 19:31N 33°44' W 118°11'2 3.1
2017-Sep-21 19:01N 33°46' W 118°12'0 0.0
2017-Sep-21 03:16N 33°46' W 118°12'0 0.0
2017-Sep-21 03:00N 33°46' W 118°12'0 0.0
2017-Sep-21 02:29N 33°46' W 118°12'0 0.0
2017-Sep-21 02:00N 33°46' W 118°12'510.9
2017-Sep-21 01:30N 33°41' W 118°15'3 1.6
2017-Sep-20 23:22N 33°42' W 118°19'720.2
2017-Sep-20 23:00N 33°44' W 118°11'2 3.7
2017-Sep-20 22:30N 33°46' W 118°12'0 0.9
2017-Sep-20 22:00N 33°45' W 118°11'714.9
2017-Sep-20 21:30N 33°39' W 118°16'6 9.8
2017-Sep-20 20:52N 33°33' W 118°15'716.9
2017-Sep-20 20:28N 33°34' W 118°07'2 3.4
2017-Sep-20 20:00N 33°35' W 118°06'1020.1
2017-Sep-20 19:31N 33°44' W 118°11'2 4.3
2017-Sep-20 19:00N 33°46' W 118°12'0 0.0
2017-Sep-20 01:45N 33°46' W 118°12'0 0.0
2017-Sep-20 01:30N 33°46' W 118°12'713.3
2017-Sep-20 00:57N 33°39' W 118°08'816.7
2017-Sep-20 00:28N 33°32' W 118°03'3 5.7
2017-Sep-19 23:54N 33°33' W 118°06'6 9.9
2017-Sep-19 23:16N 33°39' W 118°08'518.4
2017-Sep-19 23:00N 33°44' W 118°11'2 4.4
2017-Sep-19 22:30N 33°46' W 118°12'1 1.2
2017-Sep-19 22:00N 33°45' W 118°11'815.1
2017-Sep-19 21:30N 33°38' W 118°08'713.9
2017-Sep-19 21:00N 33°32' W 118°04'2 3.1
2017-Sep-19 20:30N 33°33' W 118°03'2 4.8
2017-Sep-19 20:00N 33°35' W 118°05'1019.5
2017-Sep-19 19:31N 33°43' W 118°11'3 5.1
2017-Sep-19 19:00N 33°46' W 118°12'2 4.0
2017-Sep-19 18:30N 33°44' W 118°11'4 8.5
2017-Sep-19 18:00N 33°44' W 118°17'0 0.0
2017-Sep-19 17:30N 33°44' W 118°17'3 6.3
2017-Sep-19 17:01N 33°43' W 118°13'2 0.2
2017-Sep-19 02:27N 33°46' W 118°12'0 0.0
2017-Sep-19 02:00N 33°46' W 118°12'0 0.0
2017-Sep-19 01:30N 33°46' W 118°12'610.9
2017-Sep-19 00:59N 33°41' W 118°09'917.4
2017-Sep-19 00:28N 33°32' W 118°05'1 1.5
2017-Sep-19 00:00N 33°33' W 118°04'2 3.9
2017-Sep-18 23:30N 33°35' W 118°05'1020.7
2017-Sep-18 23:00N 33°44' W 118°11'2 4.4
2017-Sep-18 22:30N 33°46' W 118°12'0 0.6
2017-Sep-18 22:00N 33°46' W 118°12'714.6
2017-Sep-18 21:30N 33°39' W 118°08'815.8
2017-Sep-18 21:00N 33°32' W 118°03'2 3.1
2017-Sep-18 20:30N 33°33' W 118°04'4 8.8
2017-Sep-18 20:01N 33°37' W 118°07'9 4.5
2017-Sep-18 17:56N 33°45' W 118°11'1 1.2
2017-Sep-18 17:30N 33°46' W 118°12'0 0.0
2017-Sep-18 17:00N 33°46' W 118°12'0 0.0
2017-Sep-18 16:30N 33°46' W 118°12'0 0.0
2017-Sep-18 04:26N 33°46' W 118°12'0 0.0
2017-Sep-18 04:00N 33°46' W 118°12'0 0.0
2017-Sep-18 03:30N 33°46' W 118°12'4 8.9
2017-Sep-18 03:00N 33°43' W 118°16'0 0.3
2017-Sep-18 02:30N 33°43' W 118°16'510.1
2017-Sep-18 02:00N 33°38' W 118°17'2 4.4
2017-Sep-18 01:30N 33°39' W 118°19'510.6
2017-Sep-18 01:00N 33°43' W 118°15'2 3.7
2017-Sep-18 00:30N 33°44' W 118°17'4 7.2
2017-Sep-18 00:00N 33°41' W 118°18'3 6.3
2017-Sep-17 23:30N 33°38' W 118°16'510.6
2017-Sep-17 23:00N 33°43' W 118°16'1 1.8
2017-Sep-17 22:30N 33°44' W 118°17'4 8.8
2017-Sep-17 22:00N 33°40' W 118°17'2 4.0
2017-Sep-17 21:30N 33°38' W 118°16'510.3
2017-Sep-17 21:00N 33°43' W 118°16'1 2.8
2017-Sep-17 20:30N 33°44' W 118°17'0 0.8
2017-Sep-17 20:00N 33°44' W 118°16'4 1.4
2017-Sep-17 17:01N 33°46' W 118°12'0 2.7
2017-Sep-17 17:00N 33°46' W 118°12'0 0.0
2017-Sep-17 16:27N 33°46' W 118°12'0 0.0
2017-Sep-17 03:21N 33°46' W 118°12'0 0.0
2017-Sep-17 03:00N 33°46' W 118°12'0 0.0
2017-Sep-17 02:30N 33°46' W 118°12'2 3.6
2017-Sep-17 02:00N 33°44' W 118°11'5 9.4
2017-Sep-17 01:30N 33°44' W 118°17'0 0.6
2017-Sep-17 01:00N 33°44' W 118°17'3 5.3
2017-Sep-17 00:30N 33°42' W 118°15'5 7.3
2017-Sep-16 23:45N 33°38' W 118°18'2 8.5
2017-Sep-16 23:30N 33°40' W 118°18'4 8.9
2017-Sep-16 23:00N 33°44' W 118°17'3 5.9
2017-Sep-16 22:30N 33°41' W 118°17'3 2.9
2017-Sep-16 21:34N 33°40' W 118°20'223.2
2017-Sep-16 21:30N 33°41' W 118°18'4 7.4
2017-Sep-16 21:00N 33°44' W 118°17'0 0.0
2017-Sep-16 20:30N 33°44' W 118°17'0 0.8
2017-Sep-16 20:00N 33°44' W 118°16'5 9.3
2017-Sep-16 19:30N 33°45' W 118°11'1 1.3
2017-Sep-16 19:00N 33°46' W 118°12'0 0.9
2017-Sep-16 18:30N 33°45' W 118°11'2 3.8
2017-Sep-16 18:00N 33°46' W 118°13'2 3.8
2017-Sep-16 17:30N 33°44' W 118°12'1 2.4
2017-Sep-16 17:01N 33°46' W 118°12'0 0.0
2017-Sep-16 16:30N 33°46' W 118°12'0 0.0
2017-Sep-16 03:17N 33°46' W 118°12'0 0.0
2017-Sep-16 03:00N 33°46' W 118°12'0 0.0
2017-Sep-16 02:30N 33°46' W 118°12'0 0.0
2017-Sep-16 02:00N 33°46' W 118°12'2 4.6
2017-Sep-16 01:30N 33°45' W 118°09'1424.1
2017-Sep-16 00:55N 33°33' W 117°60'818.2
2017-Sep-16 00:30N 33°27' W 117°55'2 3.9
2017-Sep-16 00:01N 33°28' W 117°53'1019.8
2017-Sep-15 23:30N 33°35' W 118°01'1223.3
2017-Sep-15 23:00N 33°43' W 118°11'2 4.9
2017-Sep-15 22:30N 33°46' W 118°12'917.4
2017-Sep-15 22:00N 33°39' W 118°05'714.1
2017-Sep-15 21:31N 33°32' W 118°03'3 6.9
2017-Sep-15 21:01N 33°34' W 118°06'4 7.9
2017-Sep-15 20:29N 33°34' W 118°11'4 7.6
2017-Sep-15 20:00N 33°37' W 118°13'816.4
2017-Sep-15 19:30N 33°45' W 118°11'1 1.4
2017-Sep-15 18:59N 33°46' W 118°12'4 9.3
2017-Sep-15 18:30N 33°41' W 118°11'7 3.9
2017-Sep-15 16:36N 33°36' W 118°17'223.4
2017-Sep-15 16:31N 33°38' W 118°17'510.8
2017-Sep-15 16:00N 33°44' W 118°17'2 3.5
2017-Sep-15 15:30N 33°43' W 118°15'4 7.3
2017-Sep-15 15:00N 33°46' W 118°12'0 0.0
2017-Sep-15 02:29N 33°45' W 118°11'2 3.4
2017-Sep-15 02:00N 33°46' W 118°13'2 4.2
2017-Sep-15 01:30N 33°45' W 118°12'1 2.3
2017-Sep-15 01:00N 33°46' W 118°12'0 0.3
2017-Sep-15 00:30N 33°46' W 118°12'0 0.1
2017-Sep-15 00:00N 33°46' W 118°12'0 0.0
2017-Sep-14 23:30N 33°46' W 118°12'0 0.1
2017-Sep-14 23:00N 33°46' W 118°12'0 0.1
2017-Sep-14 22:30N 33°46' W 118°12'713.7
2017-Sep-14 22:00N 33°40' W 118°08'814.9
2017-Sep-14 21:30N 33°34' W 118°03'1 2.2
2017-Sep-14 21:00N 33°34' W 118°04'1 2.9
2017-Sep-14 20:30N 33°33' W 118°05'712.1
2017-Sep-14 19:58N 33°35' W 118°13'920.1
2017-Sep-14 19:30N 33°44' W 118°11'2 3.6
2017-Sep-14 19:01N 33°46' W 118°12'0 0.0
2017-Sep-14 18:30N 33°46' W 118°12'510.5
2017-Sep-14 18:00N 33°41' W 118°10'1 1.1
2017-Sep-14 17:31N 33°41' W 118°10'5 9.8
2017-Sep-14 17:00N 33°46' W 118°12'  

Dump ship's entire track history